Portada
METAR-TAF:

METAR-TAF

Aeropuertos :

Aeropuerto Internacional Wattay

Vientián, Laos

latitud: 17-57N, longitud: 102-34E, altitud: 171 m

Observación

El informe se hizo hace 12 minutos, a las 14:00 UTC
Viento 2 kt del sur-suroeste
Temperatura 30°C
Humedad 66%
Presión 1006 hPa
Visibilidad: 4000 m
neblina

METAR: VLVT 241400Z 20002KT 4000 BR NSC 30/23 Q1006 NOSIG

Hora: 21:12 (14:12 UTC)

Pronóstico

El informe se hizo hace 3 horas y 12 minutos, a las 11:00 UTC
Pronóstico válido del 24 a las 12 UTC al 25 a las 12 UTC
Viento 4 kt del sureste
Visibilidad: 7000 m
Nubes dispersas a una altura de 1600 ft
Nubes dispersas a una altura de 5000 ft
Temporalmente
del 24 a las 14 UTC al 24 a las 20 UTC
Visibilidad: 3000 m
Escasas nubes a una altura de 2000 ft, Cumulonimbus.
Nubes dispersas a una altura de 5000 ft
tormenta, (leve

TAF: VLVT 241100Z 2412/2512 14004KT 7000 SCT016 SCT050 TEMPO 2414/2420 3000 -TS FEW020CB SCT050

Observaciones y pronósticos meteorológicos de más de 4000 aeropuertos (mensajes METAR y TAF).

Los puntos amarillos y rojos representan las estaciones disponibles.

Ponga el ratón en el punto deseado para ver el nombre de la estación.

Haga clic para ver las observaciones y los pronósticos meteorológicos.

Para cambiar el mapa : haga clic en los botones verdes con una cruz de color negro para hacer un zoom, en el botón verde con un guión para alejar o en las flechas verdes para mapas adyacentes.


METAR-TAF: